Time;durP1;ratioP1;P1;durP2;ratioP2;P2;SDS_P1;SDS_P2;PMS_P1;PMS_P2;Temp;Humidity;BMP_temperature;BMP_pressure;BME280_temperature;BME280_humidity;BME280_pressure;Samples;Min_cycle;Max_cycle;Signal;HPM_P1;HPM_P2
2022/04/19 00:00:27;;;;;;;2.30;2.07;;;8.90;75.10;;;;;;5030836;28;20916;-71
2022/04/19 00:02:53;;;;;;;3.00;2.23;;;9.00;74.60;;;;;;5031156;28;20235;-71
2022/04/19 00:05:18;;;;;;;2.10;1.90;;;9.00;73.80;;;;;;5031103;28;20427;-71
2022/04/19 00:07:44;;;;;;;3.57;2.90;;;9.10;73.70;;;;;;5030895;28;20709;-71
2022/04/19 00:10:11;;;;;;;7.17;2.30;;;9.10;72.90;;;;;;5013023;28;20956;-71
2022/04/19 00:12:37;;;;;;;2.10;1.97;;;9.10;72.60;;;;;;5030664;28;20517;-71
2022/04/19 00:15:04;;;;;;;2.23;2.03;;;9.20;73.80;;;;;;5030557;28;20968;-71
2022/04/19 00:17:30;;;;;;;2.20;2.10;;;9.20;73.30;;;;;;5030383;28;21328;-71
2022/04/19 00:19:55;;;;;;;4.00;2.70;;;9.10;74.00;;;;;;5030332;28;20415;-71
2022/04/19 00:22:21;;;;;;;2.80;2.10;;;9.10;74.20;;;;;;5030244;28;20192;-70
2022/04/19 00:24:47;;;;;;;3.77;2.37;;;9.10;75.30;;;;;;5012155;28;20713;-70
2022/04/19 00:27:13;;;;;;;2.13;2.03;;;9.10;75.10;;;;;;5030029;28;20250;-70
2022/04/19 00:29:41;;;;;;;4.30;2.53;;;9.10;75.30;;;;;;5029923;28;20207;-70
2022/04/19 00:32:08;;;;;;;6.10;2.53;;;8.90;76.30;;;;;;5030046;28;20424;-71
2022/04/19 00:34:34;;;;;;;5.57;2.63;;;8.80;77.30;;;;;;5029805;28;20423;-71
2022/04/19 00:37:01;;;;;;;4.60;2.67;;;8.60;77.90;;;;;;5029666;28;20446;-71
2022/04/19 00:39:27;;;;;;;3.73;2.50;;;8.60;79.40;;;;;;5029675;28;20177;-71
2022/04/19 00:41:52;;;;;;;3.67;3.00;;;8.50;79.50;;;;;;5029763;28;20520;-71
2022/04/19 00:44:18;;;;;;;2.93;2.27;;;8.40;82.80;;;;;;5029566;28;21225;-71
2022/04/19 00:46:44;;;;;;;2.57;2.37;;;8.30;85.60;;;;;;5028756;28;20205;-71
2022/04/19 00:49:09;;;;;;;3.57;2.43;;;8.10;87.80;;;;;;5011572;28;20190;-71
2022/04/19 00:51:35;;;;;;;2.77;2.27;;;8.00;88.10;;;;;;5029785;28;20181;-71
2022/04/19 00:54:03;;;;;;;2.53;2.30;;;7.80;89.80;;;;;;5013166;28;20184;-70
2022/04/19 00:56:29;;;;;;;7.40;2.57;;;7.70;90.30;;;;;;5029541;28;20196;-71
2022/04/19 00:58:55;;;;;;;3.57;2.67;;;7.50;90.50;;;;;;5029439;28;21251;-71
2022/04/19 01:01:21;;;;;;;4.50;2.70;;;7.40;91.30;;;;;;5011529;28;20484;-70
2022/04/19 01:03:46;;;;;;;2.70;2.50;;;7.50;91.50;;;;;;5011247;28;21003;-71
2022/04/19 01:06:12;;;;;;;2.70;2.40;;;7.50;91.20;;;;;;5029103;28;20188;-70
2022/04/19 01:08:38;;;;;;;3.03;2.30;;;7.40;91.20;;;;;;5028911;28;20184;-71
2022/04/19 01:13:48;;;;;;;2.37;2.17;;;7.30;92.50;;;;;;5029252;28;20499;-71
2022/04/19 01:16:16;;;;;;;3.13;2.83;;;7.30;92.70;;;;;;5028861;28;20441;-71
2022/04/19 01:18:41;;;;;;;3.57;2.13;;;7.10;93.10;;;;;;5028937;28;20419;-71
2022/04/19 01:21:08;;;;;;;4.77;2.80;;;7.00;92.90;;;;;;5029140;28;20954;-71
2022/04/19 01:23:34;;;;;;;3.43;2.60;;;7.00;92.60;;;;;;5028583;28;20188;-71
2022/04/19 01:26:00;;;;;;;5.10;2.73;;;7.00;92.80;;;;;;5010746;28;20820;-71
2022/04/19 01:28:25;;;;;;;3.07;2.77;;;7.00;93.20;;;;;;5028682;28;20697;-71
2022/04/19 01:30:54;;;;;;;4.20;2.40;;;7.00;93.10;;;;;;5028515;28;20212;-71
2022/04/19 01:33:21;;;;;;;2.47;2.27;;;6.90;93.10;;;;;;5028983;28;20188;-71
2022/04/19 01:35:48;;;;;;;3.97;2.20;;;6.90;93.60;;;;;;5028576;28;20430;-73
2022/04/19 01:38:14;;;;;;;2.90;2.40;;;6.80;93.90;;;;;;5010772;28;20435;-71
2022/04/19 01:40:39;;;;;;;3.27;2.57;;;6.80;93.80;;;;;;5028491;28;20422;-71
2022/04/19 01:43:05;;;;;;;3.10;2.80;;;6.70;93.30;;;;;;5028494;28;20188;-71
2022/04/19 01:45:33;;;;;;;3.10;2.07;;;6.50;93.80;;;;;;5010527;28;20228;-71
2022/04/19 01:48:00;;;;;;;2.90;2.70;;;6.50;93.80;;;;;;5028439;28;20239;-71
2022/04/19 01:50:27;;;;;;;4.33;2.47;;;6.50;93.50;;;;;;5028776;28;20575;-71
2022/04/19 01:52:54;;;;;;;2.50;2.30;;;6.50;93.90;;;;;;5028402;28;20768;-71
2022/04/19 01:55:20;;;;;;;3.20;2.47;;;6.50;93.80;;;;;;5028293;28;20430;-71
2022/04/19 01:57:48;;;;;;;3.00;2.73;;;6.40;94.30;;;;;;5028019;28;20785;-71
2022/04/19 02:00:15;;;;;;;3.33;3.00;;;6.40;94.90;;;;;;5028273;28;20424;-71
2022/04/19 02:02:45;;;;;;;3.70;2.70;;;6.30;96.00;;;;;;5028127;28;20936;-72
2022/04/19 02:05:12;;;;;;;3.60;2.63;;;6.10;96.10;;;;;;5028264;28;20425;-70
2022/04/19 02:07:39;;;;;;;5.57;3.00;;;6.10;96.60;;;;;;4994064;28;20454;-70
2022/04/19 02:10:07;;;;;;;2.93;2.70;;;6.10;96.60;;;;;;5028102;28;20467;-70
2022/04/19 02:12:33;;;;;;;4.30;3.10;;;6.00;96.70;;;;;;5028144;28;20884;-70
2022/04/19 02:15:00;;;;;;;3.60;2.60;;;6.00;97.20;;;;;;5010518;28;20469;-70
2022/04/19 02:17:25;;;;;;;3.10;2.87;;;5.90;97.60;;;;;;5010088;28;20463;-70
2022/04/19 02:20:19;;;;;;;3.80;2.83;;;5.90;97.80;;;;;;5028183;28;20459;-70
2022/04/19 02:22:45;;;;;;;5.10;2.87;;;5.80;98.60;;;;;;5024854;28;20735;-70
2022/04/19 02:25:12;;;;;;;4.30;2.60;;;5.80;98.60;;;;;;5028100;28;20474;-72
2022/04/19 02:27:40;;;;;;;2.60;2.40;;;5.80;98.20;;;;;;5029261;28;20447;-72
2022/04/19 02:30:14;;;;;;;3.00;2.70;;;5.80;98.00;;;;;;5011692;28;20975;-71
2022/04/19 02:32:44;;;;;;;4.33;3.00;;;5.70;98.50;;;;;;5029979;28;20415;-72
2022/04/19 02:35:10;;;;;;;2.77;2.50;;;5.70;98.20;;;;;;5029414;28;20417;-72
2022/04/19 02:37:37;;;;;;;3.40;2.90;;;5.70;97.80;;;;;;5029395;28;20465;-72
2022/04/19 02:40:03;;;;;;;3.03;2.70;;;5.70;98.20;;;;;;5011339;28;20430;-71
2022/04/19 02:42:28;;;;;;;3.80;2.50;;;5.60;98.60;;;;;;5029372;28;20951;-72
2022/04/19 02:44:54;;;;;;;3.13;2.83;;;5.50;98.70;;;;;;5028374;28;20427;-71
2022/04/19 02:47:20;;;;;;;3.20;2.90;;;5.50;99.00;;;;;;5027953;28;20207;-69
2022/04/19 02:49:45;;;;;;;2.60;2.40;;;5.40;98.90;;;;;;5027918;28;20331;-72
2022/04/19 02:52:11;;;;;;;3.40;2.87;;;5.50;99.10;;;;;;5027978;28;20176;-69
2022/04/19 02:54:37;;;;;;;3.90;2.83;;;5.50;99.50;;;;;;5027913;28;20180;-72
2022/04/19 02:57:04;;;;;;;4.00;2.50;;;5.40;99.90;;;;;;5027680;28;20438;-72
2022/04/19 02:59:30;;;;;;;2.70;2.50;;;5.40;99.90;;;;;;5027769;28;20681;-71
2022/04/19 03:01:55;;;;;;;4.13;3.23;;;5.30;99.90;;;;;;5027867;28;20447;-72
2022/04/19 03:04:21;;;;;;;3.10;2.77;;;5.30;99.90;;;;;;5027863;28;20187;-71
2022/04/19 03:06:49;;;;;;;5.17;2.70;;;5.30;99.90;;;;;;5009877;28;20208;-71
2022/04/19 03:09:15;;;;;;;4.73;2.93;;;5.20;99.90;;;;;;5010914;28;20604;-72
2022/04/19 03:11:41;;;;;;;3.40;3.00;;;5.10;99.90;;;;;;5031392;28;20431;-71
2022/04/19 03:14:06;;;;;;;3.10;2.80;;;5.20;99.90;;;;;;5031255;28;20192;-71
2022/04/19 03:16:33;;;;;;;7.33;2.90;;;5.10;99.90;;;;;;5031243;28;20204;-72
2022/04/19 03:18:58;;;;;;;4.40;2.93;;;5.10;99.90;;;;;;5031195;28;20253;-72
2022/04/19 03:21:24;;;;;;;4.00;3.07;;;5.10;99.90;;;;;;5031170;28;20912;-71
2022/04/19 03:29:29;;;;;;;3.47;2.97;;;5.00;99.90;;;;;;4943606;28;20489;-71
2022/04/19 03:31:54;;;;;;;4.37;3.00;;;5.10;99.90;;;;;;5031027;28;20938;-71
2022/04/19 03:34:20;;;;;;;3.10;2.80;;;5.00;99.90;;;;;;5030947;28;20191;-71
2022/04/19 03:36:46;;;;;;;3.37;2.70;;;5.00;99.90;;;;;;5030909;28;20209;-71
2022/04/19 03:39:11;;;;;;;2.50;2.30;;;5.00;99.90;;;;;;5030800;28;20216;-71
2022/04/19 03:41:37;;;;;;;3.10;2.73;;;4.90;99.90;;;;;;5030829;28;20258;-71
2022/04/19 03:44:03;;;;;;;4.90;3.17;;;5.00;99.90;;;;;;5030748;28;20672;-71
2022/04/19 03:46:28;;;;;;;3.60;3.27;;;4.90;99.90;;;;;;5030618;28;20270;-71
2022/04/19 03:48:54;;;;;;;2.80;2.60;;;4.80;99.90;;;;;;5030687;28;20651;-71
2022/04/19 03:51:19;;;;;;;4.87;2.90;;;4.80;99.90;;;;;;5030545;28;20761;-71
2022/04/19 03:53:46;;;;;;;2.90;2.60;;;4.70;99.90;;;;;;5012647;28;20823;-71
2022/04/19 03:56:12;;;;;;;6.13;3.47;;;4.70;99.90;;;;;;5030486;28;20212;-71
2022/04/19 03:58:37;;;;;;;3.23;2.93;;;4.70;99.90;;;;;;5030826;28;20465;-70
2022/04/19 04:01:03;;;;;;;4.70;3.73;;;4.70;99.90;;;;;;5030371;28;20348;-71
2022/04/19 04:03:29;;;;;;;3.20;2.90;;;4.60;99.90;;;;;;5030391;28;20188;-70
2022/04/19 04:05:57;;;;;;;3.80;3.07;;;4.70;99.90;;;;;;5030364;28;20210;-71
2022/04/19 04:08:23;;;;;;;3.27;2.97;;;4.70;99.90;;;;;;5030371;28;20189;-71
2022/04/19 04:10:51;;;;;;;4.40;3.07;;;4.60;99.90;;;;;;5012218;28;20478;-71
2022/04/19 04:13:17;;;;;;;4.90;3.10;;;4.60;99.90;;;;;;5030269;28;20255;-71
2022/04/19 04:15:42;;;;;;;4.70;3.20;;;4.60;99.90;;;;;;5030226;28;20425;-70
2022/04/19 04:18:09;;;;;;;4.03;3.00;;;4.60;99.90;;;;;;5030267;28;20681;-70
2022/04/19 04:20:34;;;;;;;3.40;3.10;;;4.60;99.90;;;;;;5030508;28;20680;-70
2022/04/19 04:23:00;;;;;;;4.00;3.03;;;4.60;99.90;;;;;;5032087;28;20427;-71
2022/04/19 04:25:26;;;;;;;4.43;3.20;;;4.50;99.90;;;;;;5030003;28;20256;-71
2022/04/19 04:27:52;;;;;;;4.77;4.20;;;4.50;99.90;;;;;;5030101;28;20650;-72
2022/04/19 04:30:17;;;;;;;5.13;3.03;;;4.60;99.90;;;;;;5012214;28;20226;-72
2022/04/19 04:32:44;;;;;;;3.93;3.10;;;4.60;99.90;;;;;;5012181;28;20230;-72
2022/04/19 04:35:10;;;;;;;6.93;3.20;;;4.40;99.90;;;;;;5011964;28;20223;-72
2022/04/19 04:37:35;;;;;;;4.60;3.03;;;4.30;99.90;;;;;;5011661;28;20480;-72
2022/04/19 04:40:01;;;;;;;4.73;3.30;;;4.30;99.90;;;;;;5029345;28;20348;-71
2022/04/19 04:42:27;;;;;;;3.73;3.33;;;4.40;99.90;;;;;;5029688;28;20798;-72
2022/04/19 04:44:52;;;;;;;3.50;2.87;;;4.30;99.90;;;;;;5028991;28;20190;-71
2022/04/19 04:50:02;;;;;;;3.13;2.60;;;4.30;99.90;;;;;;5029046;28;20429;-71
2022/04/19 04:52:28;;;;;;;2.50;2.30;;;4.40;99.90;;;;;;5010972;28;20443;-72
2022/04/19 04:54:54;;;;;;;3.33;2.90;;;4.40;99.90;;;;;;5028742;28;20433;-71
2022/04/19 04:57:19;;;;;;;3.07;2.77;;;4.60;99.90;;;;;;5028730;28;20199;-72
2022/04/19 04:59:47;;;;;;;3.10;2.80;;;4.70;99.90;;;;;;5028716;28;20602;-71
2022/04/19 05:02:14;;;;;;;4.00;2.40;;;4.90;99.90;;;;;;5028693;28;20206;-71
2022/04/19 05:04:39;;;;;;;3.43;3.13;;;4.70;99.90;;;;;;5028527;28;20794;-72
2022/04/19 05:07:05;;;;;;;3.23;2.60;;;4.70;99.90;;;;;;5028039;28;20451;-72
2022/04/19 05:09:30;;;;;;;4.73;3.50;;;4.80;99.90;;;;;;5010301;28;20194;-72
2022/04/19 05:11:56;;;;;;;5.00;3.50;;;4.80;99.90;;;;;;5027870;28;20184;-72
2022/04/19 05:14:23;;;;;;;3.07;2.77;;;4.90;99.90;;;;;;5027480;28;20190;-72
2022/04/19 05:16:49;;;;;;;9.23;4.20;;;5.00;99.90;;;;;;5027727;28;20870;-72
2022/04/19 05:19:15;;;;;;;4.80;3.40;;;5.00;99.90;;;;;;5027977;28;20914;-72
2022/04/19 05:21:40;;;;;;;7.63;3.37;;;5.00;99.90;;;;;;5027448;28;20415;-72
2022/04/19 05:24:07;;;;;;;3.43;3.10;;;5.10;99.90;;;;;;5027160;28;20187;-72
2022/04/19 05:26:33;;;;;;;5.93;3.47;;;5.20;99.90;;;;;;5027635;28;20262;-72
2022/04/19 05:28:59;;;;;;;3.50;3.20;;;5.20;99.90;;;;;;5009422;28;20427;-72
2022/04/19 05:31:25;;;;;;;3.57;3.10;;;5.30;99.90;;;;;;5027018;28;20298;-72
2022/04/19 05:33:50;;;;;;;4.23;2.80;;;5.40;99.90;;;;;;5009270;28;20597;-72
2022/04/19 05:36:16;;;;;;;3.27;2.80;;;5.50;99.90;;;;;;5027199;28;20510;-72
2022/04/19 05:38:43;;;;;;;8.27;2.80;;;5.60;99.90;;;;;;5027681;28;20187;-71
2022/04/19 05:41:10;;;;;;;3.30;3.00;;;5.70;99.90;;;;;;5028006;28;20911;-72
2022/04/19 05:43:36;;;;;;;9.13;4.33;;;5.70;99.90;;;;;;5027895;28;20427;-72
2022/04/19 05:46:01;;;;;;;5.70;3.97;;;5.70;99.90;;;;;;5009856;28;20442;-72
2022/04/19 05:48:28;;;;;;;4.87;3.47;;;5.70;99.90;;;;;;5009680;28;20427;-72
2022/04/19 05:50:53;;;;;;;4.30;3.90;;;5.70;99.90;;;;;;5027308;28;20212;-72
2022/04/19 05:53:20;;;;;;;7.70;5.20;;;5.70;99.90;;;;;;5027486;28;20930;-72
2022/04/19 05:55:46;;;;;;;4.73;4.23;;;5.80;99.90;;;;;;5027624;28;20180;-72
2022/04/19 05:58:11;;;;;;;4.10;3.70;;;6.00;99.90;;;;;;5009306;28;21035;-71
2022/04/19 06:00:37;;;;;;;4.70;4.00;;;6.10;99.90;;;;;;5027135;28;20426;-72
2022/04/19 06:05:47;;;;;;;4.53;3.60;;;6.70;99.90;;;;;;5027748;28;20191;-71
2022/04/19 06:08:14;;;;;;;5.00;3.40;;;7.10;99.90;;;;;;5027377;28;20439;-71
2022/04/19 06:10:40;;;;;;;3.50;3.20;;;7.40;99.40;;;;;;5027022;28;20589;-71
2022/04/19 06:13:06;;;;;;;3.33;2.70;;;7.80;99.00;;;;;;5026821;28;20422;-71
2022/04/19 06:15:32;;;;;;;3.50;3.20;;;8.00;97.50;;;;;;5026776;28;20422;-71
2022/04/19 06:17:58;;;;;;;8.93;4.30;;;8.20;96.90;;;;;;5027057;28;20440;-72
2022/04/19 06:20:24;;;;;;;4.00;3.60;;;8.40;95.60;;;;;;5026841;28;20200;-71
2022/04/19 06:22:50;;;;;;;4.30;3.37;;;8.50;95.40;;;;;;5026695;28;20724;-71
2022/04/19 06:25:16;;;;;;;4.33;3.50;;;8.70;95.10;;;;;;5026555;28;20439;-71
2022/04/19 06:27:42;;;;;;;3.43;3.13;;;8.90;96.10;;;;;;5026925;28;20574;-72
2022/04/19 06:30:08;;;;;;;9.33;4.20;;;8.90;96.20;;;;;;5026598;28;20296;-72
2022/04/19 06:32:34;;;;;;;7.33;3.90;;;9.20;96.00;;;;;;5026511;28;20184;-72
2022/04/19 06:34:59;;;;;;;6.23;3.90;;;9.60;95.80;;;;;;5026531;28;20433;-72
2022/04/19 06:37:26;;;;;;;4.60;3.40;;;9.80;95.40;;;;;;5026393;28;20200;-72
2022/04/19 06:39:51;;;;;;;5.53;3.90;;;10.10;94.90;;;;;;5026398;28;20430;-72
2022/04/19 06:42:17;;;;;;;8.10;4.23;;;10.50;94.30;;;;;;5008559;28;20790;-72
2022/04/19 06:44:44;;;;;;;7.90;5.90;;;10.80;93.60;;;;;;5028561;28;20621;-73
2022/04/19 06:47:10;;;;;;;5.63;5.03;;;11.20;93.30;;;;;;5030182;28;20210;-72
2022/04/19 06:49:37;;;;;;;7.50;4.80;;;11.40;91.20;;;;;;5030106;28;20798;-72
2022/04/19 06:52:06;;;;;;;7.43;4.97;;;11.70;89.90;;;;;;5012533;28;20623;-72
2022/04/19 06:54:32;;;;;;;5.97;4.70;;;11.80;90.30;;;;;;5030163;28;20433;-72
2022/04/19 06:56:57;;;;;;;5.07;4.30;;;11.70;89.00;;;;;;5030876;28;20484;-72
2022/04/19 06:59:23;;;;;;;9.10;4.20;;;12.00;89.40;;;;;;5031494;28;20425;-72
2022/04/19 07:01:50;;;;;;;8.83;4.77;;;12.20;88.30;;;;;;5031355;28;20537;-72
2022/04/19 07:04:15;;;;;;;6.80;4.50;;;12.50;86.20;;;;;;5031084;28;20432;-72
2022/04/19 07:06:41;;;;;;;8.33;4.53;;;12.60;80.40;;;;;;5031059;28;20446;-72
2022/04/19 07:09:07;;;;;;;6.80;3.90;;;12.90;82.00;;;;;;5030861;28;20209;-72
2022/04/19 07:11:32;;;;;;;5.00;3.93;;;13.30;80.80;;;;;;5030822;28;20214;-72
2022/04/19 07:13:58;;;;;;;4.50;3.40;;;13.70;78.40;;;;;;5012036;28;20194;-72
2022/04/19 07:16:23;;;;;;;3.83;3.53;;;13.70;75.60;;;;;;5030084;28;20210;-72
2022/04/19 07:18:49;;;;;;;3.93;3.53;;;14.00;75.70;;;;;;5029733;28;20190;-72
2022/04/19 07:26:47;;;;;;;5.60;4.20;;;14.20;72.70;;;;;;5029774;28;20482;-72
2022/04/19 07:29:15;;;;;;;7.33;3.73;;;14.30;71.90;;;;;;5011592;28;20471;-72
2022/04/19 07:31:43;;;;;;;5.33;3.73;;;14.50;71.90;;;;;;5029866;28;20492;-72
2022/04/19 07:34:10;;;;;;;5.00;3.63;;;14.70;70.10;;;;;;5030461;28;20446;-73
2022/04/19 07:36:42;;;;;;;6.03;3.93;;;14.90;70.50;;;;;;5029437;28;20500;-72
2022/04/19 07:39:12;;;;;;;5.03;3.20;;;15.10;74.20;;;;;;5029427;28;20454;-73
2022/04/19 07:41:39;;;;;;;3.70;3.40;;;15.20;74.80;;;;;;5029649;28;20411;-73
2022/04/19 07:44:06;;;;;;;3.63;3.30;;;15.20;71.40;;;;;;5029436;28;20430;-72
2022/04/19 07:46:32;;;;;;;5.40;3.90;;;15.30;75.10;;;;;;5029997;28;20451;-72
2022/04/19 07:48:58;;;;;;;4.43;3.17;;;15.30;73.40;;;;;;5029412;28;20449;-72
2022/04/19 07:51:24;;;;;;;3.40;2.80;;;15.60;73.60;;;;;;5029380;28;20219;-72
2022/04/19 07:53:50;;;;;;;4.03;3.63;;;15.70;73.80;;;;;;5029518;28;20259;-72
2022/04/19 07:56:15;;;;;;;6.10;3.90;;;15.60;72.00;;;;;;5028917;28;20517;-72
2022/04/19 07:58:42;;;;;;;4.73;3.57;;;15.60;71.60;;;;;;5029664;28;20254;-72
2022/04/19 08:01:10;;;;;;;5.00;3.90;;;15.50;74.20;;;;;;5029410;28;20575;-72
2022/04/19 08:03:36;;;;;;;5.83;3.77;;;15.40;76.00;;;;;;5029835;28;20421;-72
2022/04/19 08:06:02;;;;;;;5.27;3.97;;;15.50;76.30;;;;;;5029833;28;20419;-72
2022/04/19 08:08:28;;;;;;;6.10;4.07;;;15.50;71.10;;;;;;5030000;28;20544;-72
2022/04/19 08:10:53;;;;;;;11.17;3.90;;;15.60;67.90;;;;;;5012377;28;20693;-72
2022/04/19 08:13:19;;;;;;;5.87;4.70;;;15.70;67.10;;;;;;5030644;28;20218;-72
2022/04/19 08:15:45;;;;;;;6.00;4.67;;;16.00;67.90;;;;;;5029524;28;20188;-72
2022/04/19 08:18:14;;;;;;;5.10;3.97;;;16.00;65.30;;;;;;5029290;28;20258;-72
2022/04/19 08:20:40;;;;;;;5.73;4.30;;;16.20;63.80;;;;;;5029976;28;20485;-72
2022/04/19 08:23:07;;;;;;;5.90;3.80;;;16.50;64.80;;;;;;5029615;28;20451;-72
2022/04/19 08:25:37;;;;;;;4.90;3.90;;;16.40;62.80;;;;;;5028505;28;20987;-73
2022/04/19 08:28:03;;;;;;;4.67;4.10;;;16.40;61.10;;;;;;5028484;28;20435;-73
2022/04/19 08:30:29;;;;;;;4.30;3.67;;;16.20;59.90;;;;;;5029132;28;21089;-72
2022/04/19 08:32:55;;;;;;;5.43;4.53;;;16.10;60.00;;;;;;5028554;28;20538;-72
2022/04/19 08:35:21;;;;;;;4.90;3.90;;;16.00;61.30;;;;;;5028505;28;20443;-72
2022/04/19 08:37:47;;;;;;;4.90;4.40;;;16.00;62.00;;;;;;5028321;28;20466;-72
2022/04/19 08:40:13;;;;;;;7.73;4.50;;;15.90;61.50;;;;;;5028172;28;20611;-72
2022/04/19 08:42:40;;;;;;;4.33;3.90;;;16.10;61.70;;;;;;5028283;28;20911;-72
2022/04/19 08:45:08;;;;;;;4.77;4.30;;;16.40;62.10;;;;;;5028541;28;20431;-72
2022/04/19 08:47:39;;;;;;;4.80;4.30;;;16.80;59.90;;;;;;5027939;28;20451;-72
2022/04/19 08:50:08;;;;;;;8.53;4.43;;;17.00;58.80;;;;;;5028088;28;20965;-72
2022/04/19 08:52:34;;;;;;;4.30;3.90;;;17.10;58.10;;;;;;5028217;28;20487;-71
2022/04/19 08:57:45;;;;;;;6.40;4.70;;;17.50;56.90;;;;;;5028249;28;20488;-72
2022/04/19 09:00:11;;;;;;;5.40;4.67;;;17.80;53.00;;;;;;5027952;28;20424;-72
2022/04/19 09:02:37;;;;;;;5.27;4.47;;;18.00;53.00;;;;;;5010313;28;20190;-72
2022/04/19 09:05:16;;;;;;;4.43;4.00;;;18.40;53.60;;;;;;5009922;28;20873;-72
2022/04/19 09:07:44;;;;;;;9.43;4.53;;;18.80;54.30;;;;;;5027226;28;20218;-72
2022/04/19 09:10:14;;;;;;;7.50;4.87;;;19.20;54.10;;;;;;5027966;28;20484;-72
2022/04/19 09:13:04;;;;;;;7.33;3.97;;;19.50;52.40;;;;;;5027953;28;20437;-72
2022/04/19 09:15:45;;;;;;;9.43;4.93;;;19.70;52.00;;;;;;5028238;28;20453;-72
2022/04/19 09:18:32;;;;;;;4.30;3.90;;;20.00;50.70;;;;;;5010081;28;20985;-72
2022/04/19 09:21:03;;;;;;;7.30;4.80;;;20.30;50.80;;;;;;5027705;28;20429;-72
2022/04/19 09:23:30;;;;;;;7.13;4.30;;;20.20;48.00;;;;;;5027796;28;20433;-72
2022/04/19 09:26:08;;;;;;;6.27;4.93;;;20.60;48.50;;;;;;5027419;28;20500;-72
2022/04/19 09:28:34;;;;;;;5.87;4.80;;;20.70;47.50;;;;;;5011451;28;20436;-72
2022/04/19 09:31:01;;;;;;;6.33;4.47;;;20.90;47.20;;;;;;5027419;28;20470;-72
2022/04/19 09:33:30;;;;;;;5.23;3.07;;;21.00;46.10;;;;;;5027497;28;20497;-72
2022/04/19 09:36:02;;;;;;;24.00;5.97;;;20.80;45.20;;;;;;5027506;28;20443;-72
2022/04/19 09:38:38;;;;;;;8.53;4.57;;;20.70;46.90;;;;;;5027492;28;20457;-72
2022/04/19 09:41:05;;;;;;;5.83;3.20;;;21.00;47.80;;;;;;5027378;28;20425;-72
2022/04/19 09:43:32;;;;;;;6.40;3.93;;;21.40;46.90;;;;;;5009407;28;20516;-72
2022/04/19 09:46:03;;;;;;;5.30;3.53;;;21.30;45.80;;;;;;5027429;28;20792;-72
2022/04/19 09:48:33;;;;;;;5.30;3.53;;;21.60;45.10;;;;;;5027313;28;20423;-72
2022/04/19 09:51:02;;;;;;;4.60;3.43;;;21.80;44.80;;;;;;5027189;28;20467;-72
2022/04/19 09:53:30;;;;;;;9.70;3.47;;;22.00;45.10;;;;;;5027006;28;20558;-72
2022/04/19 09:55:58;;;;;;;3.40;2.90;;;22.40;43.70;;;;;;5027102;28;20419;-72
2022/04/19 09:58:25;;;;;;;4.00;2.50;;;22.50;41.90;;;;;;5027209;28;20435;-72
2022/04/19 10:00:51;;;;;;;5.23;3.03;;;22.50;44.10;;;;;;5027216;28;20436;-73
2022/04/19 10:08:52;;;;;;;3.00;2.33;;;22.20;40.60;;;;;;5012283;28;21063;-73
2022/04/19 10:11:18;;;;;;;7.80;3.23;;;22.20;39.40;;;;;;5026836;28;20481;-72
2022/04/19 10:13:45;;;;;;;4.43;3.17;;;22.60;41.50;;;;;;5026681;28;20458;-72
2022/04/19 10:16:12;;;;;;;3.83;2.93;;;22.80;41.10;;;;;;5026944;28;20927;-72
2022/04/19 10:18:39;;;;;;;5.70;3.03;;;22.40;39.60;;;;;;5028787;28;20418;-72
2022/04/19 10:21:08;;;;;;;4.50;3.13;;;22.30;40.00;;;;;;5031352;28;20974;-72
2022/04/19 10:23:36;;;;;;;4.33;2.87;;;22.70;39.20;;;;;;5031214;28;20422;-72
2022/04/19 10:26:14;;;;;;;2.60;2.23;;;22.80;39.20;;;;;;5030808;28;20458;-72
2022/04/19 10:28:39;;;;;;;3.70;3.10;;;23.00;38.90;;;;;;5012486;28;20825;-73
2022/04/19 10:31:05;;;;;;;4.27;3.00;;;22.90;38.10;;;;;;5030525;28;20474;-73
2022/04/19 10:33:51;;;;;;;5.80;3.37;;;23.00;39.50;;;;;;5030901;28;20186;-73
2022/04/19 10:36:18;;;;;;;3.50;2.83;;;23.00;39.30;;;;;;5030651;28;20931;-73
2022/04/19 10:38:46;;;;;;;6.30;3.57;;;22.60;38.40;;;;;;5030645;28;20795;-73
2022/04/19 10:41:31;;;;;;;4.40;3.20;;;21.90;39.10;;;;;;5030924;28;20952;-73
2022/04/19 10:44:20;;;;;;;8.93;3.53;;;21.90;39.20;;;;;;5030315;28;20446;-73
2022/04/19 10:46:46;;;;;;;4.53;3.23;;;21.80;40.10;;;;;;5030539;28;20434;-73
2022/04/19 10:49:22;;;;;;;4.17;3.17;;;22.10;39.50;;;;;;5030746;28;20476;-73
2022/04/19 10:52:01;;;;;;;4.43;3.60;;;22.30;38.20;;;;;;5030296;28;20475;-73
2022/04/19 10:55:06;;;;;;;4.67;3.27;;;22.30;41.00;;;;;;5030444;28;20426;-73
2022/04/19 11:00:31;;;;;;;4.77;3.50;;;22.90;39.50;;;;;;5030103;28;20930;-73
2022/04/19 11:03:03;;;;;;;5.90;3.70;;;22.90;40.40;;;;;;5030217;28;20930;-73
2022/04/19 11:05:36;;;;;;;4.00;3.60;;;23.30;38.90;;;;;;5030092;28;20504;-73
2022/04/19 11:08:21;;;;;;;4.20;3.73;;;23.30;38.70;;;;;;5029938;28;20508;-71
2022/04/19 11:10:51;;;;;;;7.53;3.50;;;23.10;39.00;;;;;;5029799;28;20465;-73
2022/04/19 11:13:17;;;;;;;6.87;3.70;;;23.10;39.00;;;;;;5030258;28;20412;-73
2022/04/19 11:15:43;;;;;;;3.87;3.17;;;23.10;39.10;;;;;;5011894;28;20463;-73
2022/04/19 11:18:25;;;;;;;4.27;3.40;;;23.10;40.40;;;;;;5029726;28;20440;-73
2022/04/19 11:20:56;;;;;;;5.07;4.60;;;23.20;39.50;;;;;;5029789;28;20434;-73
2022/04/19 11:23:26;;;;;;;10.03;7.37;;;23.40;37.60;;;;;;5029697;28;20439;-73
2022/04/19 11:25:53;;;;;;;9.23;3.53;;;23.50;37.20;;;;;;5012359;28;20510;-73
2022/04/19 11:28:21;;;;;;;3.50;3.20;;;23.40;37.60;;;;;;5013082;28;20455;-73
2022/04/19 11:30:50;;;;;;;4.37;3.60;;;23.10;36.30;;;;;;5012680;28;20475;-73
2022/04/19 11:33:23;;;;;;;6.73;3.33;;;22.80;36.90;;;;;;5032875;28;20434;-73
2022/04/19 11:36:06;;;;;;;5.33;3.30;;;23.00;37.90;;;;;;5034452;28;20423;-73
2022/04/19 11:38:34;;;;;;;3.33;2.97;;;23.20;37.40;;;;;;5034552;28;20427;-72
2022/04/19 11:46:44;;;;;;;3.53;3.23;;;23.80;36.20;;;;;;5029672;28;20790;-73
2022/04/19 11:49:34;;;;;;;3.23;2.93;;;23.80;36.50;;;;;;5029564;28;20460;-73
2022/04/19 11:52:11;;;;;;;5.00;3.43;;;24.10;35.10;;;;;;5017604;28;20499;-73
2022/04/19 11:54:38;;;;;;;4.90;2.97;;;24.00;36.30;;;;;;5029194;28;20424;-73
2022/04/19 11:57:06;;;;;;;3.90;3.20;;;23.90;36.00;;;;;;5029041;28;20440;-73
2022/04/19 11:59:33;;;;;;;4.63;3.00;;;23.80;36.10;;;;;;5029119;28;20506;-73
2022/04/19 12:02:00;;;;;;;5.20;2.57;;;23.60;34.00;;;;;;5029132;28;20508;-73
2022/04/19 12:04:27;;;;;;;2.93;2.60;;;23.80;34.50;;;;;;5029476;28;20443;-73
2022/04/19 12:07:01;;;;;;;2.90;2.50;;;23.90;35.70;;;;;;5029214;28;20462;-73
2022/04/19 12:09:28;;;;;;;3.20;2.90;;;23.90;34.90;;;;;;5029901;28;20423;-73
2022/04/19 12:11:55;;;;;;;2.50;2.30;;;23.90;35.00;;;;;;5030896;28;20523;-73
2022/04/19 12:14:31;;;;;;;2.70;2.50;;;24.10;35.00;;;;;;5011060;28;20886;-73
2022/04/19 12:17:02;;;;;;;4.90;3.00;;;23.90;33.80;;;;;;5029382;28;20478;-73
2022/04/19 12:19:38;;;;;;;3.43;3.00;;;24.00;33.70;;;;;;5011727;28;20428;-73
2022/04/19 12:22:23;;;;;;;4.40;3.07;;;23.80;33.40;;;;;;5029500;28;20427;-73
2022/04/19 12:24:58;;;;;;;3.30;2.43;;;23.60;32.50;;;;;;5029069;28;20527;-73
2022/04/19 12:27:36;;;;;;;6.40;3.00;;;23.70;34.50;;;;;;5028568;28;20450;-73
2022/04/19 12:30:08;;;;;;;4.30;3.13;;;23.40;34.20;;;;;;5028472;28;20464;-73
2022/04/19 12:32:57;;;;;;;4.73;3.33;;;23.60;35.90;;;;;;5028604;28;20508;-73
2022/04/19 12:35:34;;;;;;;3.57;3.00;;;23.50;35.70;;;;;;5028933;28;20437;-73
2022/04/19 12:38:06;;;;;;;3.13;2.93;;;23.40;36.30;;;;;;5028931;28;20471;-73
2022/04/19 12:40:33;;;;;;;4.50;2.93;;;23.60;34.30;;;;;;5028696;28;20424;-73
2022/04/19 12:42:59;;;;;;;4.73;2.80;;;23.60;34.70;;;;;;4993727;28;20944;-73
2022/04/19 12:45:31;;;;;;;3.90;3.00;;;23.20;34.40;;;;;;5028743;28;20411;-73
2022/04/19 12:48:00;;;;;;;3.87;2.97;;;23.20;34.90;;;;;;5028347;28;20580;-73
2022/04/19 12:50:27;;;;;;;4.40;3.73;;;23.20;36.90;;;;;;5028246;28;20470;-73
2022/04/19 12:52:53;;;;;;;5.63;3.00;;;23.50;37.10;;;;;;5028144;28;20508;-73
2022/04/19 12:58:30;;;;;;;4.80;3.20;;;23.40;32.50;;;;;;5028361;28;20201;-73
2022/04/19 13:00:57;;;;;;;3.37;2.27;;;23.00;33.60;;;;;;5027934;28;20784;-73
2022/04/19 13:03:22;;;;;;;5.07;3.13;;;23.20;35.10;;;;;;5028137;28;20182;-73
2022/04/19 13:14:01;;;;;;;3.87;3.57;;;23.20;35.30;;;;;;5013131;28;20419;-73
2022/04/19 13:16:26;;;;;;;2.83;2.63;;;22.90;35.00;;;;;;5028164;28;20443;-73
2022/04/19 13:18:52;;;;;;;4.00;3.20;;;22.80;34.90;;;;;;5010890;28;20838;-73
2022/04/19 13:21:17;;;;;;;4.90;3.30;;;22.90;36.00;;;;;;5028676;28;20180;-73
2022/04/19 13:23:43;;;;;;;5.93;3.17;;;23.00;36.90;;;;;;5028282;28;20280;-73
2022/04/19 13:26:09;;;;;;;3.93;3.53;;;23.10;36.00;;;;;;5028122;28;20201;-73
2022/04/19 13:28:35;;;;;;;4.20;3.30;;;23.00;33.50;;;;;;5010185;28;20933;-73
2022/04/19 13:31:00;;;;;;;6.37;3.50;;;22.90;36.30;;;;;;5027952;28;20224;-73
2022/04/19 13:33:26;;;;;;;8.60;3.50;;;22.90;34.70;;;;;;5010184;28;20874;-73
2022/04/19 13:35:52;;;;;;;4.70;3.40;;;22.90;35.40;;;;;;5028088;28;20212;-73
2022/04/19 13:38:23;;;;;;;5.33;3.43;;;22.70;35.50;;;;;;5028066;28;20671;-73
2022/04/19 13:40:49;;;;;;;5.67;3.17;;;22.60;36.10;;;;;;5027966;28;20300;-73
2022/04/19 13:43:14;;;;;;;4.77;3.40;;;22.50;35.60;;;;;;5027723;28;21076;-73